createdAt,value
2023-04-19T00:00:58.152Z,65.9883
2023-04-19T00:01:59.624Z,66.0088
2023-04-19T00:03:01.332Z,66.0388
2023-04-19T00:04:03.060Z,66.0368
2023-04-19T00:05:05.351Z,66.0223
2023-04-19T00:06:07.097Z,65.9922
2023-04-19T00:07:08.478Z,65.9763
2023-04-19T00:08:09.938Z,65.9241
2023-04-19T00:09:11.304Z,65.9074
2023-04-19T00:10:12.701Z,65.9236
2023-04-19T00:11:14.092Z,65.9312
2023-04-19T00:12:15.476Z,65.9370
2023-04-19T00:13:16.875Z,65.8864
2023-04-19T00:14:18.389Z,65.8448
2023-04-19T00:15:19.918Z,65.8180
2023-04-19T00:16:21.389Z,65.7760
2023-04-19T00:17:22.842Z,65.7171
2023-04-19T00:18:24.329Z,65.6473
2023-04-19T00:19:25.749Z,65.5529
2023-04-19T00:20:27.408Z,65.5575
2023-04-19T00:21:29.080Z,65.6188
2023-04-19T00:22:30.526Z,65.7018
2023-04-19T00:23:31.997Z,65.8025
2023-04-19T00:24:33.436Z,65.8456
2023-04-19T00:25:34.890Z,65.8282
2023-04-19T00:26:36.282Z,65.8444
2023-04-19T00:27:37.638Z,65.8232
2023-04-19T00:28:39.034Z,65.8231
2023-04-19T00:29:40.422Z,65.8508
2023-04-19T00:30:41.855Z,65.8974
2023-04-19T00:31:43.255Z,65.9357
2023-04-19T00:32:44.674Z,65.9865
2023-04-19T00:33:46.027Z,65.9652
2023-04-19T00:34:47.414Z,65.9531
2023-04-19T00:35:48.753Z,65.9529
2023-04-19T00:36:50.144Z,65.8970
2023-04-19T00:37:51.548Z,65.8859
2023-04-19T00:38:52.959Z,65.9025
2023-04-19T00:39:54.344Z,65.8562
2023-04-19T00:40:55.730Z,65.8431
2023-04-19T00:41:57.072Z,65.8283
2023-04-19T00:42:58.478Z,65.8255
2023-04-19T00:43:59.841Z,65.8521
2023-04-19T00:45:01.409Z,65.8784
2023-04-19T00:46:02.838Z,65.8824
2023-04-19T00:47:04.226Z,65.8912
2023-04-19T00:48:05.865Z,65.9311
2023-04-19T00:49:07.213Z,65.9757
2023-04-19T00:50:08.610Z,66.0059
2023-04-19T00:51:09.983Z,65.9722
2023-04-19T00:52:11.400Z,65.9385
2023-04-19T00:53:12.801Z,65.9893
2023-04-19T00:54:14.443Z,66.0537
2023-04-19T00:55:16.298Z,66.0899
2023-04-19T00:56:17.697Z,66.1440
2023-04-19T00:57:19.060Z,66.1664
2023-04-19T00:58:20.412Z,66.0795
2023-04-19T00:59:21.756Z,65.9688
2023-04-19T01:00:23.145Z,65.8692
2023-04-19T01:01:24.510Z,65.8653
2023-04-19T01:02:25.930Z,65.9087
2023-04-19T01:03:27.889Z,65.9956
2023-04-19T01:04:29.734Z,66.0708
2023-04-19T01:05:31.153Z,66.1274
2023-04-19T01:06:32.508Z,66.1192
2023-04-19T01:07:33.944Z,66.0583
2023-04-19T01:08:35.309Z,66.0220
2023-04-19T01:09:36.708Z,66.0905
2023-04-19T01:10:38.045Z,66.1683
2023-04-19T01:11:40.782Z,66.2349
2023-04-19T01:12:41.436Z,66.2479
2023-04-19T01:13:42.803Z,66.2376
2023-04-19T01:14:44.202Z,66.2575
2023-04-19T01:15:45.620Z,66.2740
2023-04-19T01:16:46.995Z,66.2657
2023-04-19T01:17:48.399Z,66.2605
2023-04-19T01:18:49.808Z,66.1935
2023-04-19T01:19:51.202Z,66.2112
2023-04-19T01:20:52.589Z,66.2704
2023-04-19T01:21:54.038Z,66.2795
2023-04-19T01:22:55.393Z,66.2683
2023-04-19T01:23:56.973Z,66.2638
2023-04-19T01:24:58.365Z,66.2871
2023-04-19T01:25:59.885Z,66.3058
2023-04-19T01:27:01.317Z,66.3593
2023-04-19T01:28:02.814Z,66.3978
2023-04-19T01:29:04.230Z,66.4093
2023-04-19T01:30:05.573Z,66.4423
2023-04-19T01:31:06.960Z,66.4247
2023-04-19T01:32:08.277Z,66.3658
2023-04-19T01:33:09.618Z,66.3268
2023-04-19T01:34:10.983Z,66.3620
2023-04-19T01:35:12.328Z,66.3924
2023-04-19T01:36:13.673Z,66.3971
2023-04-19T01:37:15.010Z,66.3991
2023-04-19T01:38:16.497Z,66.4378
2023-04-19T01:39:18.870Z,66.4759
2023-04-19T01:40:20.301Z,66.4372
2023-04-19T01:41:21.643Z,66.3288
2023-04-19T01:42:23.101Z,66.2911
2023-04-19T01:43:24.522Z,66.2830
2023-04-19T01:44:25.913Z,66.3206
2023-04-19T01:45:27.315Z,66.4001
2023-04-19T01:46:28.888Z,66.4646
2023-04-19T01:47:30.308Z,66.5267
2023-04-19T01:48:31.758Z,66.5844
2023-04-19T01:49:33.146Z,66.6534
2023-04-19T01:50:34.591Z,66.6757
2023-04-19T01:51:36.013Z,66.6604
2023-04-19T01:52:37.485Z,66.6844
2023-04-19T01:53:38.920Z,66.7479
2023-04-19T01:54:40.287Z,66.8310
2023-04-19T01:55:41.742Z,66.9061
2023-04-19T01:56:43.209Z,66.8920
2023-04-19T01:57:44.609Z,66.8819
2023-04-19T01:58:46.057Z,66.8933
2023-04-19T01:59:47.430Z,66.9153
2023-04-19T02:00:48.919Z,66.9336
2023-04-19T02:01:50.348Z,66.9329
2023-04-19T02:02:51.989Z,66.9219
2023-04-19T02:03:53.598Z,66.9491
2023-04-19T02:04:55.526Z,66.9630
2023-04-19T02:05:56.963Z,66.9733
2023-04-19T02:06:58.431Z,67.0077
2023-04-19T02:07:59.876Z,67.0226
2023-04-19T02:09:01.258Z,67.0590
2023-04-19T02:10:02.773Z,67.0826
2023-04-19T02:11:04.221Z,67.0795
2023-04-19T02:12:05.623Z,67.0557
2023-04-19T02:13:07.139Z,67.0392
2023-04-19T02:14:08.542Z,67.0381
2023-04-19T02:15:09.969Z,67.0498
2023-04-19T02:16:11.550Z,67.0930
2023-04-19T02:17:13.037Z,67.1817
2023-04-19T02:18:14.423Z,67.2394
2023-04-19T02:19:15.875Z,67.2917
2023-04-19T02:20:17.299Z,67.3213
2023-04-19T02:21:18.724Z,67.3487
2023-04-19T02:22:20.147Z,67.3726
2023-04-19T02:23:21.608Z,67.3606
2023-04-19T02:24:23.014Z,67.3357
2023-04-19T02:25:24.467Z,67.3312
2023-04-19T02:26:26.030Z,67.3693
2023-04-19T02:27:27.489Z,67.4279
2023-04-19T02:28:28.888Z,67.4398
2023-04-19T02:29:30.382Z,67.4655
2023-04-19T02:30:31.858Z,67.4593
2023-04-19T02:31:33.300Z,67.4740
2023-04-19T02:32:34.790Z,67.4820
2023-04-19T02:33:36.127Z,67.4778
2023-04-19T02:34:37.599Z,67.4726
2023-04-19T02:35:38.966Z,67.4252
2023-04-19T02:36:40.347Z,67.3788
2023-04-19T02:37:41.829Z,67.3523
2023-04-19T02:38:43.190Z,67.3209
2023-04-19T02:39:44.595Z,67.2719
2023-04-19T02:40:46.035Z,67.2305
2023-04-19T02:41:47.558Z,67.2003
2023-04-19T02:42:48.963Z,67.2238
2023-04-19T02:43:50.411Z,67.2486
2023-04-19T02:44:51.995Z,67.2495
2023-04-19T02:45:53.476Z,67.2727
2023-04-19T02:46:54.893Z,67.3083
2023-04-19T02:47:56.369Z,67.3350
2023-04-19T02:48:57.939Z,67.3633
2023-04-19T02:49:59.328Z,67.4092
2023-04-19T02:51:00.773Z,67.4691
2023-04-19T02:52:02.241Z,67.5087
2023-04-19T02:53:03.785Z,67.4969
2023-04-19T02:54:05.273Z,67.4336
2023-04-19T02:55:06.659Z,67.3858
2023-04-19T02:56:08.073Z,67.3824
2023-04-19T02:57:09.526Z,67.3885
2023-04-19T02:58:10.921Z,67.3982
2023-04-19T02:59:12.370Z,67.4014
2023-04-19T03:00:13.861Z,67.3988
2023-04-19T03:01:15.643Z,67.3841
2023-04-19T03:02:17.118Z,67.3984
2023-04-19T03:03:18.593Z,67.4126
2023-04-19T03:04:19.998Z,67.4464
2023-04-19T03:05:21.445Z,67.4744
2023-04-19T03:06:22.858Z,67.4872
2023-04-19T03:07:24.378Z,67.5042
2023-04-19T03:08:25.799Z,67.4990
2023-04-19T03:09:27.227Z,67.4873
2023-04-19T03:10:28.685Z,67.4850
2023-04-19T03:11:30.091Z,67.4946
2023-04-19T03:12:31.473Z,67.5202
2023-04-19T03:13:32.968Z,67.5685
2023-04-19T03:14:34.362Z,67.6151
2023-04-19T03:15:35.815Z,67.6572
2023-04-19T03:16:37.252Z,67.6774
2023-04-19T03:17:38.697Z,67.6966
2023-04-19T03:18:40.131Z,67.6824
2023-04-19T03:19:41.609Z,67.6488
2023-04-19T03:20:43.058Z,67.6472
2023-04-19T03:21:44.519Z,67.6852
2023-04-19T03:22:45.982Z,67.7568
2023-04-19T03:23:47.380Z,67.8088
2023-04-19T03:24:48.787Z,67.8242
2023-04-19T03:25:50.250Z,67.8106
2023-04-19T03:26:51.725Z,67.7416
2023-04-19T03:27:53.155Z,67.6032
2023-04-19T03:28:54.660Z,67.5493
2023-04-19T03:29:56.179Z,67.4985
2023-04-19T03:30:57.676Z,67.4563
2023-04-19T03:31:59.113Z,67.4895
2023-04-19T03:33:00.520Z,67.5541
2023-04-19T03:34:01.940Z,67.6455
2023-04-19T03:35:03.348Z,67.7171
2023-04-19T03:36:04.797Z,67.7807
2023-04-19T03:37:06.190Z,67.8269
2023-04-19T03:38:07.632Z,67.8409
2023-04-19T03:39:09.082Z,67.8533
2023-04-19T03:40:10.503Z,67.8932
2023-04-19T03:41:11.949Z,67.9738
2023-04-19T03:42:13.420Z,68.0346
2023-04-19T03:43:14.839Z,68.0732
2023-04-19T03:44:16.432Z,68.0950
2023-04-19T03:45:18.194Z,68.1072
2023-04-19T03:46:19.649Z,68.1320
2023-04-19T03:47:21.253Z,68.1548
2023-04-19T03:48:22.837Z,68.1654
2023-04-19T03:49:24.294Z,68.1850
2023-04-19T03:50:25.737Z,68.2110
2023-04-19T03:51:27.158Z,68.2250
2023-04-19T03:52:28.567Z,68.2160
2023-04-19T03:53:29.970Z,68.1975
2023-04-19T03:54:31.375Z,68.1523
2023-04-19T03:55:32.841Z,68.1276
2023-04-19T03:56:34.438Z,68.1165
2023-04-19T03:57:35.863Z,68.1254
2023-04-19T03:58:37.381Z,68.1249
2023-04-19T03:59:38.800Z,68.0840
2023-04-19T04:00:40.258Z,68.0281
2023-04-19T04:01:41.895Z,67.9971
2023-04-19T04:02:43.837Z,68.0135
2023-04-19T04:03:45.634Z,68.0457
2023-04-19T04:04:47.486Z,68.0818
2023-04-19T04:05:48.929Z,68.1341
2023-04-19T04:06:50.406Z,68.1702
2023-04-19T04:07:51.808Z,68.2007
2023-04-19T04:08:53.199Z,68.2468
2023-04-19T04:09:54.618Z,68.2943
2023-04-19T04:10:56.026Z,68.3306
2023-04-19T04:11:57.410Z,68.3429
2023-04-19T04:12:58.899Z,68.3440
2023-04-19T04:14:00.392Z,68.3444
2023-04-19T04:15:01.863Z,68.3583
2023-04-19T04:16:03.290Z,68.3806
2023-04-19T04:17:04.716Z,68.3754
2023-04-19T04:18:08.566Z,68.3874
2023-04-19T04:19:07.910Z,68.4014
2023-04-19T04:20:09.328Z,68.3788
2023-04-19T04:21:10.717Z,68.4133
2023-04-19T04:22:12.163Z,68.4662
2023-04-19T04:23:13.566Z,68.4673
2023-04-19T04:24:15.144Z,68.4428
2023-04-19T04:25:16.686Z,68.4227
2023-04-19T04:26:18.086Z,68.4195
2023-04-19T04:27:19.584Z,68.4220
2023-04-19T04:28:21.274Z,68.4331
2023-04-19T04:29:22.735Z,68.4607
2023-04-19T04:30:26.554Z,68.4946
2023-04-19T04:31:24.258Z,68.5310
2023-04-19T04:32:25.750Z,68.5295
2023-04-19T04:33:27.232Z,68.5223
2023-04-19T04:34:28.724Z,68.5171
2023-04-19T04:35:30.199Z,68.5233
2023-04-19T04:36:31.645Z,68.5315
2023-04-19T04:37:33.084Z,68.5320
2023-04-19T04:38:34.576Z,68.5238
2023-04-19T04:39:35.978Z,68.4957
2023-04-19T04:40:37.383Z,68.4448
2023-04-19T04:41:38.828Z,68.4068
2023-04-19T04:42:40.295Z,68.4230
2023-04-19T04:43:41.944Z,68.4606
2023-04-19T04:44:43.381Z,68.4814
2023-04-19T04:45:44.862Z,68.4864
2023-04-19T04:46:46.331Z,68.5058
2023-04-19T04:47:47.806Z,68.5168
2023-04-19T04:48:49.279Z,68.4952
2023-04-19T04:49:50.696Z,68.4620
2023-04-19T04:50:52.113Z,68.4343
2023-04-19T04:51:53.560Z,68.4152
2023-04-19T04:52:54.972Z,68.3717
2023-04-19T04:53:56.516Z,68.3396
2023-04-19T04:54:57.978Z,68.2912
2023-04-19T04:55:59.672Z,68.2720
2023-04-19T04:57:01.189Z,68.2353
2023-04-19T04:58:02.614Z,68.1820
2023-04-19T04:59:04.000Z,68.1576
2023-04-19T05:00:05.435Z,68.1842
2023-04-19T05:01:06.888Z,68.1721
2023-04-19T05:02:08.469Z,68.1246
2023-04-19T05:03:10.060Z,68.0747
2023-04-19T05:04:11.587Z,68.0579
2023-04-19T05:05:13.086Z,68.0520
2023-04-19T05:06:14.501Z,68.0679
2023-04-19T05:07:16.173Z,68.0892
2023-04-19T05:08:17.594Z,68.1016
2023-04-19T05:09:18.998Z,68.1373
2023-04-19T05:10:20.457Z,68.1571
2023-04-19T05:11:21.885Z,68.1471
2023-04-19T05:12:23.367Z,68.0660
2023-04-19T05:13:24.829Z,67.9652
2023-04-19T05:14:26.280Z,67.9616
2023-04-19T05:15:27.709Z,67.9902
2023-04-19T05:16:29.310Z,68.0233
2023-04-19T05:17:30.825Z,68.0435
2023-04-19T05:18:32.213Z,68.1018
2023-04-19T05:19:33.654Z,68.1674
2023-04-19T05:20:35.089Z,68.2192
2023-04-19T05:21:36.577Z,68.2779
2023-04-19T05:22:37.978Z,68.3322
2023-04-19T05:23:39.453Z,68.3722
2023-04-19T05:24:42.375Z,68.3504
2023-04-19T05:25:41.485Z,68.3339
2023-04-19T05:26:42.883Z,68.3456
2023-04-19T05:27:44.308Z,68.3414
2023-04-19T05:28:45.754Z,68.3177
2023-04-19T05:29:47.175Z,68.3111
2023-04-19T05:30:48.660Z,68.2954
2023-04-19T05:31:50.101Z,68.2744
2023-04-19T05:32:51.554Z,68.1700
2023-04-19T05:33:53.047Z,68.0455
2023-04-19T05:34:54.529Z,67.8723
2023-04-19T05:35:55.947Z,67.7770
2023-04-19T05:36:57.397Z,67.8298
2023-04-19T05:37:58.821Z,67.9191
2023-04-19T05:39:00.220Z,68.0048
2023-04-19T05:40:01.667Z,68.0675
2023-04-19T05:41:03.048Z,68.1069
2023-04-19T05:42:04.462Z,68.1228
2023-04-19T05:43:05.870Z,68.1145
2023-04-19T05:44:07.281Z,68.0573
2023-04-19T05:45:08.679Z,67.9330
2023-04-19T05:46:10.165Z,67.8944
2023-04-19T05:47:11.596Z,67.9038
2023-04-19T05:48:12.987Z,67.9030
2023-04-19T05:49:14.450Z,67.8544
2023-04-19T05:50:15.845Z,67.7864
2023-04-19T05:51:17.284Z,67.7737
2023-04-19T05:52:18.686Z,67.7597
2023-04-19T05:53:20.097Z,67.7329
2023-04-19T05:54:21.505Z,67.6916
2023-04-19T05:55:23.009Z,67.6113
2023-04-19T05:56:24.440Z,67.5704
2023-04-19T05:57:25.825Z,67.5396
2023-04-19T05:58:27.254Z,67.4921
2023-04-19T05:59:28.683Z,67.4370
2023-04-19T06:00:30.083Z,67.3929
2023-04-19T06:01:31.514Z,67.3522
2023-04-19T06:02:33.133Z,67.2912
2023-04-19T06:03:34.953Z,67.2929
2023-04-19T06:04:37.375Z,67.2689
2023-04-19T06:05:39.378Z,67.2626
2023-04-19T06:06:40.801Z,67.2665
2023-04-19T06:07:47.246Z,67.2596
2023-04-19T06:08:44.282Z,67.2088
2023-04-19T06:09:45.693Z,67.1785
2023-04-19T06:10:54.510Z,67.2113
2023-04-19T06:11:51.201Z,67.2649
2023-04-19T06:12:50.518Z,67.2989
2023-04-19T06:13:51.970Z,67.3045
2023-04-19T06:14:53.399Z,67.3011
2023-04-19T06:15:54.919Z,67.2429
2023-04-19T06:16:56.304Z,67.1917
2023-04-19T06:17:59.776Z,67.1260
2023-04-19T06:18:58.881Z,67.0043
2023-04-19T06:20:00.365Z,67.0221
2023-04-19T06:21:01.775Z,67.0897
2023-04-19T06:22:03.194Z,67.1218
2023-04-19T06:23:04.614Z,67.1641
2023-04-19T06:24:06.076Z,67.1902
2023-04-19T06:25:07.521Z,67.0251
2023-04-19T06:26:09.047Z,67.0417
2023-04-19T06:27:10.479Z,67.0743
2023-04-19T06:28:11.882Z,67.1183
2023-04-19T06:29:13.277Z,67.1363
2023-04-19T06:30:14.706Z,67.0966
2023-04-19T06:31:16.099Z,67.0213
2023-04-19T06:32:17.580Z,66.9339
2023-04-19T06:33:18.995Z,66.9439
2023-04-19T06:34:20.412Z,66.9724
2023-04-19T06:35:21.811Z,66.9966
2023-04-19T06:36:23.239Z,67.0217
2023-04-19T06:37:24.691Z,67.0256
2023-04-19T06:38:26.130Z,67.0407
2023-04-19T06:39:27.548Z,67.0264
2023-04-19T06:40:29.036Z,66.9899
2023-04-19T06:41:30.530Z,66.9463
2023-04-19T06:42:31.982Z,66.9311
2023-04-19T06:43:33.398Z,66.9005
2023-04-19T06:44:34.943Z,66.8818
2023-04-19T06:45:36.456Z,66.8021
2023-04-19T06:46:37.894Z,66.7308
2023-04-19T06:47:39.366Z,66.6681
2023-04-19T06:48:40.803Z,66.6494
2023-04-19T06:49:42.369Z,66.5921
2023-04-19T06:50:43.835Z,66.5081
2023-04-19T06:51:45.278Z,66.4709
2023-04-19T06:52:46.751Z,66.4427
2023-04-19T06:53:48.202Z,66.2783
2023-04-19T06:54:49.816Z,66.1176
2023-04-19T06:55:51.261Z,66.1144
2023-04-19T06:56:52.727Z,66.1271
2023-04-19T06:57:54.229Z,66.1504
2023-04-19T06:58:55.680Z,66.1411
2023-04-19T06:59:57.154Z,66.1140
2023-04-19T07:00:58.674Z,66.1188
2023-04-19T07:02:00.213Z,66.0815
2023-04-19T07:03:01.869Z,66.0082
2023-04-19T07:04:03.874Z,66.0123
2023-04-19T07:05:06.093Z,66.0211
2023-04-19T07:06:07.519Z,66.0477
2023-04-19T07:07:08.942Z,66.0763
2023-04-19T07:08:10.394Z,66.1123
2023-04-19T07:09:11.836Z,66.1537
2023-04-19T07:10:13.318Z,66.1309
2023-04-19T07:11:14.756Z,66.0844
2023-04-19T07:12:16.266Z,66.0782
2023-04-19T07:13:17.718Z,66.0529
2023-04-19T07:14:19.334Z,65.9828
2023-04-19T07:15:20.797Z,65.9498
2023-04-19T07:16:22.464Z,65.9766
2023-04-19T07:17:24.010Z,65.9482
2023-04-19T07:18:25.565Z,65.8823
2023-04-19T07:19:27.059Z,65.8209
2023-04-19T07:20:28.720Z,65.8027
2023-04-19T07:21:30.248Z,65.7940
2023-04-19T07:22:31.774Z,65.8043
2023-04-19T07:23:33.243Z,65.7801
2023-04-19T07:24:34.663Z,65.7511
2023-04-19T07:25:36.125Z,65.7027
2023-04-19T07:26:37.630Z,65.6413
2023-04-19T07:27:39.043Z,65.6380
2023-04-19T07:28:40.509Z,65.6551
2023-04-19T07:29:41.989Z,65.6680
2023-04-19T07:30:43.450Z,65.6501
2023-04-19T07:31:44.947Z,65.6258
2023-04-19T07:32:46.555Z,65.4912
2023-04-19T07:33:48.094Z,65.3165
2023-04-19T07:34:49.561Z,65.1951
2023-04-19T07:35:51.221Z,65.1823
2023-04-19T07:36:52.714Z,65.1898
2023-04-19T07:37:57.264Z,65.1829
2023-04-19T07:38:58.901Z,65.0968
2023-04-19T07:40:01.238Z,65.0698
2023-04-19T07:41:02.751Z,65.0252
2023-04-19T07:42:04.259Z,64.8632
2023-04-19T07:43:05.796Z,64.8214
2023-04-19T07:44:07.356Z,64.8691
2023-04-19T07:45:08.809Z,64.8856
2023-04-19T07:46:10.299Z,64.9160
2023-04-19T07:47:11.758Z,64.9464
2023-04-19T07:48:13.251Z,64.8327
2023-04-19T07:49:14.713Z,64.7101
2023-04-19T07:50:16.297Z,64.7261
2023-04-19T07:51:17.831Z,64.7787
2023-04-19T07:52:19.272Z,64.7941
2023-04-19T07:53:20.721Z,64.7097
2023-04-19T07:54:22.137Z,64.6633
2023-04-19T07:55:23.648Z,64.6252
2023-04-19T07:56:25.091Z,64.4446
2023-04-19T07:57:26.618Z,64.2613
2023-04-19T07:58:28.090Z,64.1548
2023-04-19T07:59:29.602Z,64.2087
2023-04-19T08:00:31.023Z,64.1861
2023-04-19T08:01:32.840Z,64.1636
2023-04-19T08:02:34.787Z,64.0130
2023-04-19T08:03:36.481Z,63.8725
2023-04-19T08:04:38.548Z,64.0216
2023-04-19T08:05:40.417Z,64.1665
2023-04-19T08:06:41.975Z,64.2465
2023-04-19T08:07:43.478Z,64.2410
2023-04-19T08:08:44.930Z,64.0435
2023-04-19T08:09:46.476Z,64.0693
2023-04-19T08:10:47.932Z,64.1555
2023-04-19T08:11:49.447Z,64.2383
2023-04-19T08:14:04.558Z,64.2438
2023-04-19T08:15:02.661Z,64.2984
2023-04-19T08:17:22.050Z,64.3018
2023-04-19T08:18:01.119Z,64.2883
2023-04-19T08:19:02.608Z,64.1858
2023-04-19T08:20:04.100Z,64.1043
2023-04-19T08:21:05.538Z,64.0678
2023-04-19T08:22:07.014Z,63.9577
2023-04-19T08:23:20.363Z,63.9010
2023-04-19T08:24:10.483Z,63.9046
2023-04-19T08:25:11.900Z,63.7753
2023-04-19T08:26:13.378Z,63.6661
2023-04-19T08:27:14.881Z,63.7164
2023-04-19T08:28:16.354Z,63.7825
2023-04-19T08:29:17.945Z,63.8306
2023-04-19T08:30:19.595Z,63.8792
2023-04-19T08:31:21.056Z,63.9016
2023-04-19T08:32:22.552Z,63.8420
2023-04-19T08:33:24.040Z,63.6916
2023-04-19T08:34:25.469Z,63.5801
2023-04-19T08:35:26.908Z,63.2507
2023-04-19T08:36:37.104Z,62.9142
2023-04-19T08:37:30.451Z,62.8540
2023-04-19T08:38:31.975Z,62.8773
2023-04-19T08:39:34.262Z,62.8524
2023-04-19T08:40:33.545Z,62.6591
2023-04-19T08:41:34.999Z,62.4773
2023-04-19T08:42:37.249Z,62.3483
2023-04-19T08:43:40.486Z,62.2702
2023-04-19T08:44:53.795Z,62.2313
2023-04-19T08:45:43.007Z,62.2019
2023-04-19T08:46:44.421Z,62.1744
2023-04-19T08:47:58.665Z,62.1608
2023-04-19T08:48:47.942Z,62.0963
2023-04-19T08:49:56.300Z,61.8855
2023-04-19T08:51:04.446Z,61.7959
2023-04-19T08:51:53.494Z,61.6763
2023-04-19T08:52:59.053Z,61.5245
2023-04-19T08:53:56.975Z,61.4223
2023-04-19T08:54:58.471Z,61.3779
2023-04-19T08:56:10.023Z,61.1384
2023-04-19T08:57:01.958Z,60.9964
2023-04-19T08:58:04.197Z,61.1069
2023-04-19T08:59:19.253Z,61.2247
2023-04-19T09:00:06.619Z,61.2437
2023-04-19T09:01:08.301Z,61.3068
2023-04-19T09:02:08.733Z,61.3578
2023-04-19T09:03:10.646Z,61.3613
2023-04-19T09:05:13.378Z,61.0908
2023-04-19T09:06:15.293Z,61.1516
2023-04-19T09:07:16.842Z,61.2349
2023-04-19T09:08:18.297Z,61.1810
2023-04-19T09:10:21.576Z,61.1458
2023-04-19T09:11:23.085Z,60.8538
2023-04-19T09:12:24.537Z,60.9358
2023-04-19T09:13:26.032Z,60.9545
2023-04-19T09:14:27.467Z,60.9105
2023-04-19T09:15:28.940Z,61.0338
2023-04-19T09:16:30.414Z,60.9930
2023-04-19T09:17:31.888Z,60.8556
2023-04-19T09:18:35.933Z,60.9787
2023-04-19T09:19:35.372Z,60.8996
2023-04-19T09:20:36.840Z,60.9276
2023-04-19T09:21:38.270Z,61.0554
2023-04-19T09:22:39.684Z,61.1315
2023-04-19T09:23:41.148Z,60.6597
2023-04-19T09:26:06.280Z,60.3425
2023-04-19T09:26:46.233Z,60.4636
2023-04-19T09:27:47.669Z,60.2316
2023-04-19T09:28:49.081Z,60.3561
2023-04-19T09:29:50.496Z,60.3583
2023-04-19T09:31:00.668Z,60.2880
2023-04-19T09:31:54.092Z,60.1818
2023-04-19T09:32:55.568Z,59.8604
2023-04-19T09:33:56.983Z,59.7354
2023-04-19T09:34:58.454Z,59.6432
2023-04-19T09:35:59.902Z,59.6725
2023-04-19T09:37:12.177Z,59.1474
2023-04-19T09:38:06.721Z,58.9225
2023-04-19T09:39:05.934Z,58.9432
2023-04-19T09:40:07.381Z,59.0044
2023-04-19T09:41:08.800Z,58.9272
2023-04-19T09:42:10.260Z,59.0077
2023-04-19T09:44:50.198Z,59.1723
2023-04-19T09:46:17.344Z,58.8722
2023-04-19T09:47:18.716Z,58.8044
2023-04-19T09:48:20.159Z,58.6360
2023-04-19T09:49:33.547Z,58.6117
2023-04-19T09:50:27.288Z,58.4505
2023-04-19T09:51:23.753Z,58.3121
2023-04-19T09:52:25.150Z,58.4220
2023-04-19T09:53:26.528Z,58.5662
2023-04-19T09:54:27.941Z,58.3386
2023-04-19T09:55:31.721Z,58.0711
2023-04-19T09:56:31.350Z,58.1003
2023-04-19T09:57:32.766Z,58.0754
2023-04-19T09:59:35.919Z,57.2466
2023-04-19T10:00:47.996Z,57.2683
2023-04-19T10:01:39.368Z,57.6336
2023-04-19T10:02:40.949Z,57.7030
2023-04-19T10:03:42.619Z,57.8273
2023-04-19T10:05:46.317Z,58.0501
2023-04-19T10:07:07.403Z,58.0114
2023-04-19T10:07:49.874Z,57.8212
2023-04-19T10:08:51.621Z,57.7509
2023-04-19T10:09:55.023Z,57.7600
2023-04-19T10:10:55.236Z,57.6111
2023-04-19T10:12:03.764Z,57.4653
2023-04-19T10:13:15.891Z,57.4911
2023-04-19T10:14:00.900Z,57.4820
2023-04-19T10:15:02.313Z,57.3726
2023-04-19T10:16:15.502Z,57.3949
2023-04-19T10:17:05.794Z,57.4739
2023-04-19T10:18:07.413Z,57.5024
2023-04-19T10:19:10.054Z,57.4121
2023-04-19T10:20:09.224Z,57.4040
2023-04-19T10:21:10.608Z,57.4455
2023-04-19T10:22:11.990Z,57.3422
2023-04-19T10:23:13.487Z,57.2418
2023-04-19T10:24:14.893Z,57.2629
2023-04-19T10:25:16.356Z,57.1797
2023-04-19T10:26:17.765Z,57.0915
2023-04-19T10:27:19.216Z,57.0993
2023-04-19T10:28:20.647Z,57.1199
2023-04-19T10:29:22.074Z,57.1561
2023-04-19T10:30:23.517Z,57.0653
2023-04-19T10:31:24.912Z,56.8485
2023-04-19T10:32:26.380Z,56.8823
2023-04-19T10:33:27.898Z,56.9065
2023-04-19T10:34:29.350Z,56.7498
2023-04-19T10:35:30.753Z,56.3194
2023-04-19T10:36:32.189Z,55.6099
2023-04-19T10:37:33.793Z,55.0151
2023-04-19T10:38:35.329Z,54.9024
2023-04-19T10:39:36.794Z,55.3484
2023-04-19T10:40:38.178Z,55.4793
2023-04-19T10:41:39.654Z,55.5935
2023-04-19T10:42:41.037Z,55.6753
2023-04-19T10:43:42.477Z,55.5961
2023-04-19T10:44:43.866Z,55.3806
2023-04-19T10:45:45.313Z,55.6188
2023-04-19T10:46:46.707Z,55.9827
2023-04-19T10:47:48.195Z,56.0715
2023-04-19T10:48:49.701Z,56.0811
2023-04-19T10:49:51.181Z,55.9386
2023-04-19T10:50:52.634Z,55.9126
2023-04-19T10:51:54.059Z,55.9421
2023-04-19T10:52:55.484Z,55.9943
2023-04-19T10:53:56.940Z,56.1166
2023-04-19T10:54:58.374Z,56.1432
2023-04-19T10:55:59.779Z,56.0909
2023-04-19T10:57:01.201Z,55.9812
2023-04-19T10:58:02.602Z,56.1149
2023-04-19T10:59:04.036Z,56.2352
2023-04-19T11:00:05.471Z,56.1764
2023-04-19T11:01:06.889Z,56.4939
2023-04-19T11:02:08.395Z,56.7022
2023-04-19T11:03:10.086Z,56.7530
2023-04-19T11:04:11.902Z,56.7517
2023-04-19T11:05:13.603Z,56.7174
2023-04-19T11:06:15.014Z,56.6953
2023-04-19T11:07:16.386Z,56.6880
2023-04-19T11:08:17.799Z,56.7861
2023-04-19T11:09:19.260Z,56.8573
2023-04-19T11:10:20.719Z,56.7879
2023-04-19T11:11:22.143Z,56.7374
2023-04-19T11:12:23.597Z,56.8355
2023-04-19T11:13:25.039Z,56.9446
2023-04-19T11:14:26.493Z,56.9220
2023-04-19T11:15:27.969Z,56.9574
2023-04-19T11:16:42.434Z,57.0116
2023-04-19T11:17:31.598Z,56.8598
2023-04-19T11:18:33.301Z,56.7454
2023-04-19T11:19:34.683Z,56.7267
2023-04-19T11:20:36.157Z,56.5976
2023-04-19T11:21:37.554Z,56.3922
2023-04-19T11:22:39.052Z,56.3477
2023-04-19T11:23:40.455Z,55.7912
2023-04-19T11:24:41.873Z,55.4837
2023-04-19T11:25:43.296Z,55.5528
2023-04-19T11:26:44.752Z,55.7368
2023-04-19T11:27:46.230Z,55.8948
2023-04-19T11:28:47.680Z,55.9610
2023-04-19T11:29:49.135Z,55.8354
2023-04-19T11:30:50.622Z,55.5910
2023-04-19T11:31:52.137Z,55.5615
2023-04-19T11:32:53.666Z,55.4908
2023-04-19T11:33:55.439Z,55.3188
2023-04-19T11:34:57.069Z,55.1638
2023-04-19T11:35:58.509Z,55.1128
2023-04-19T11:36:59.938Z,55.0309
2023-04-19T11:38:01.428Z,54.9911
2023-04-19T11:39:02.898Z,55.0431
2023-04-19T11:40:05.104Z,55.0705
2023-04-19T11:41:06.908Z,55.1703
2023-04-19T11:42:08.340Z,54.9724
2023-04-19T11:43:09.710Z,54.6417
2023-04-19T11:44:11.159Z,54.2831
2023-04-19T11:45:25.897Z,53.7431
2023-04-19T11:46:14.737Z,53.5787
2023-04-19T11:47:16.251Z,53.2455
2023-04-19T11:48:17.888Z,52.9467
2023-04-19T11:49:19.348Z,53.2042
2023-04-19T11:50:20.831Z,53.7614
2023-04-19T11:51:22.460Z,54.2240
2023-04-19T11:52:23.913Z,54.5304
2023-04-19T11:53:25.371Z,54.6936
2023-04-19T11:54:26.854Z,54.8586
2023-04-19T11:55:28.272Z,54.8779
2023-04-19T11:56:29.732Z,54.6658
2023-04-19T11:57:31.183Z,54.7006
2023-04-19T11:58:32.617Z,54.8045
2023-04-19T11:59:34.064Z,55.0500
2023-04-19T12:00:35.524Z,55.2538
2023-04-19T12:01:36.918Z,55.3390
2023-04-19T12:02:38.610Z,55.1177
2023-04-19T12:03:40.335Z,54.7666
2023-04-19T12:04:42.205Z,54.7836
2023-04-19T12:05:44.146Z,54.9444
2023-04-19T12:06:45.666Z,54.9155
2023-04-19T12:07:47.124Z,54.7202
2023-04-19T12:08:48.575Z,54.7342
2023-04-19T12:09:50.032Z,54.9329
2023-04-19T12:10:51.519Z,55.0406
2023-04-19T12:11:52.940Z,55.0915
2023-04-19T12:12:54.383Z,55.0809
2023-04-19T12:13:55.813Z,54.9862
2023-04-19T12:14:57.289Z,54.5489
2023-04-19T12:15:58.758Z,54.3341
2023-04-19T12:17:00.322Z,54.1793
2023-04-19T12:18:01.876Z,53.6168
2023-04-19T12:19:03.476Z,53.0521
2023-04-19T12:20:05.027Z,53.0464
2023-04-19T12:21:06.465Z,53.6143
2023-04-19T12:22:07.921Z,54.0553
2023-04-19T12:23:09.401Z,54.2875
2023-04-19T12:24:10.918Z,54.2190
2023-04-19T12:25:12.404Z,53.6425
2023-04-19T12:26:13.839Z,53.2653
2023-04-19T12:27:15.359Z,53.0009
2023-04-19T12:28:16.836Z,52.5820
2023-04-19T12:29:18.385Z,52.4625
2023-04-19T12:30:19.836Z,52.6091
2023-04-19T12:31:21.250Z,53.1843
2023-04-19T12:32:22.733Z,53.6712
2023-04-19T12:33:24.240Z,54.0448